Latest Coastal Weather Observations for Wyndham Airport

IDW60701

Issued at 12:53 pm WST Saturday 10 December 2016 (issued every 10 minutes, with the page automatically refreshed every 10 minutes)

About coastal observations | Map of coastal stations | Coastal observations for WA | Marine services | Other Formats
Station Details ID: 001006 Name: WYNDHAM AERO Lat: -15.51 Lon: 128.15 Height: 3.8 m
Data from the previous 72 hours. | See also: Recent months at Wyndham Airport
Date/Time
WST
Temp
°C
Wind Pressure Rain since
9am
mm
Weather Cloud Vis
km
Sea
Height
m
Swell
Dir  Spd
kts
Gust
kts
hPa Trend Height
m
Period
s
Dir
10/12:30pm 33.6 SSE 4 7 1008.2 - 0.0 - - - - - - -
10/12:00pm 32.2 SSE 5 8 1008.8 - 0.0 - - - - - - -
10/11:30am 30.8 SSE 4 6 1009.4 - 0.0 - - - - - - -
10/11:00am 30.0 W 4 5 1010.0 - 0.0 - - - - - - -
10/10:30am 29.4 SW 2 5 1010.6 - 0.0 - - - - - - -
10/10:00am 28.6 SSW 2 4 1011.1 - 0.0 - - - - - - -
10/09:30am 28.3 SSW 3 5 1011.5 - 0.0 - - - - - - -
10/09:00am 28.2 SW 5 6 1011.4 - 0.0 - - - - - - -
10/08:30am 27.8 SSE 6 10 1011.1 - 0.0 - - - - - - -
10/08:00am 28.1 SE 8 10 1011.1 - 0.0 - - - - - - -
10/07:30am 28.0 SE 5 7 1011.2 - 0.0 - - - - - - -
10/07:00am 27.2 S 4 6 1010.6 - 0.0 - - - - - - -
10/06:30am 26.9 S 5 8 1010.2 - 0.0 - - - - - - -
10/06:00am 26.5 S 5 6 1010.4 - 0.0 - - - - - - -
10/05:30am 26.1 S 11 14 1010.6 - 0.0 - - - - - - -
10/05:00am 26.1 SSW 10 12 1010.0 - 0.0 - - - - - - -
10/04:30am 26.1 SSW 13 16 1009.7 - 0.0 - - - - - - -
10/04:00am 26.3 S 11 15 1009.2 - 0.0 - - - - - - -
10/03:30am 26.3 SE 11 17 1009.0 - 0.0 - - - - - - -
10/03:29am 26.6 SE 11 17 1008.9 - 0.0 - - - - - - -
10/03:05am 27.8 SSE 20 30 1008.4 - 0.0 - - - - - - -
10/03:00am 27.1 SE 22 30 1008.6 - 0.0 - - - - - - -
10/02:53am 26.9 SE 19 29 1008.8 - 0.0 - - - - - - -
10/02:48am 27.3 SE 13 24 1008.8 - 0.0 - - - - - - -
10/02:30am 28.4 S 11 16 1008.1 - 0.0 - - - - - - -
10/02:00am 29.0 SSW 13 18 1007.0 - 0.0 - - - - - - -
10/01:30am 31.2 WSW 14 19 1006.8 - 0.0 - - - - - - -
10/01:00am 32.4 NNW 11 15 1006.5 - 0.0 - - - - - - -
10/12:30am 33.2 NNW 6 9 1007.0 - 0.0 - - - - - - -
10/12:00am 33.4 NW 7 8 1006.5 - 0.0 - - - - - - -
 
Date/Time
WST
Temp
°C
Wind Pressure Rain since
9am
mm
Weather Cloud Vis
km
Sea
Height
m
Swell
Dir  Spd
kts
Gust
kts
hPa Trend Height
m
Period
s
Dir
09/11:30pm 33.8 NW 11 14 1006.5 - 0.0 - - - - - - -
09/11:00pm 33.7 NNW 8 10 1006.9 - 0.0 - - - - - - -
09/10:30pm 33.9 NNW 8 11 1007.1 - 0.0 - - - - - - -
09/10:00pm 33.7 NNW 6 7 1007.4 - 0.0 - - - - - - -
09/09:30pm 33.9 NNW 6 10 1007.4 - 0.0 - - - - - - -
09/09:00pm 33.4 CALM 0 1 1007.4 - 0.0 - - - - - - -
09/08:30pm 33.6 WNW 6 8 1007.1 - 0.0 - - - - - - -
09/08:00pm 33.4 N 9 13 1006.6 - 0.0 - - - - - - -
09/07:30pm 33.5 N 10 14 1006.0 - 0.0 - - - - - - -
09/07:00pm 33.7 N 11 15 1005.6 - 0.0 - - - - - - -
09/06:30pm 34.5 NNE 13 19 1004.9 - 0.0 - - - - - - -
09/06:00pm 34.9 N 11 16 1004.8 - 0.0 - - - - - - -
09/05:30pm 35.5 N 10 14 1004.4 - 0.0 - - - - - - -
09/05:00pm 36.1 N 11 14 1004.0 - 0.0 - - - - - - -
09/04:30pm 36.6 N 11 15 1003.5 - 0.0 - - - - - - -
09/04:00pm 37.2 N 8 11 1003.2 - 0.0 - - - - - - -
09/03:30pm 37.5 NNE 8 12 1003.3 - 0.0 - - - - - - -
09/03:00pm 37.8 N 8 11 1003.6 - 0.0 - - - - - - -
09/02:30pm 38.8 NE 9 13 1003.6 - 0.0 - - - - - - -
09/02:00pm 38.5 NNE 11 16 1003.8 - 0.0 - - - - - - -
09/01:30pm 38.1 N 11 14 1003.9 - 0.0 - - - - - - -
09/01:00pm 38.1 NNW 9 14 1004.6 - 0.0 - - - - - - -
09/12:30pm 39.6 NNW 8 16 1004.7 - 0.0 - - - - - - -
09/12:00pm 38.6 N 9 15 1005.4 - 0.0 - - - - - - -
09/11:30am 39.0 NNW 8 12 1005.7 - 0.0 - - - - - - -
09/11:00am 37.8 NNW 5 11 1006.4 - 0.0 - - - - - - -
09/10:30am 37.8 N 7 11 1006.6 - 0.0 - - - - - - -
09/10:00am 37.7 W 7 10 1006.9 - 0.0 - - - - - - -
09/09:30am 36.3 N 2 5 1007.1 - 0.0 - - - - - - -
09/09:00am 36.3 ESE 3 12 1007.2 - 0.0 - - - - - - -
09/08:30am 36.0 ESE 8 11 1007.7 - 0.0 - - - - - - -
09/08:00am 34.8 SSE 3 8 1007.9 - 0.0 - - - - - - -
09/07:30am 33.6 W 5 7 1007.9 - 0.0 - - - - - - -
09/07:00am 33.2 WSW 7 11 1007.6 - 0.0 - - - - - - -
09/06:30am 33.2 WSW 9 11 1007.1 - 0.0 - - - - - - -
09/06:00am 32.5 W 7 9 1006.7 - 0.0 - - - - - - -
09/05:30am 31.8 W 8 9 1006.4 - 0.0 - - - - - - -
09/05:00am 31.9 WSW 9 11 1006.2 - 0.0 - - - - - - -
09/04:30am 32.1 W 4 5 1005.5 - 0.0 - - - - - - -
09/04:00am 32.2 W 6 8 1005.0 - 0.0 - - - - - - -
09/03:30am 32.6 W 6 7 1004.8 - 0.0 - - - - - - -
09/03:00am 32.0 NW 5 8 1004.5 - 0.0 - - - - - - -
09/02:30am 32.7 WNW 5 7 1004.5 - 0.0 - - - - - - -
09/02:00am 33.2 WNW 7 8 1004.5 - 0.0 - - - - - - -
09/01:30am 33.3 WNW 8 9 1004.5 - 0.0 - - - - - - -
09/01:00am 33.2 W 8 10 1004.6 - 0.0 - - - - - - -
09/12:30am 33.4 W 6 7 1004.8 - 0.0 - - - - - - -
09/12:00am 33.8 W 10 11 1004.9 - 0.0 - - - - - - -
 
Date/Time
WST
Temp
°C
Wind Pressure Rain since
9am
mm
Weather Cloud Vis
km
Sea
Height
m
Swell
Dir  Spd
kts
Gust
kts
hPa Trend Height
m
Period
s
Dir
08/11:30pm 34.3 W 8 11 1005.2 - 0.0 - - - - - - -
08/11:00pm 34.2 NW 7 8 1005.4 - 0.0 - - - - - - -
08/10:30pm 34.0 NNW 6 9 1005.4 - 0.0 - - - - - - -
08/10:00pm 33.3 NNW 2 3 1005.5 - 0.0 - - - - - - -
08/09:30pm 33.4 N 5 7 1005.4 - 0.0 - - - - - - -
08/09:00pm 33.4 N 4 6 1005.2 - 0.0 - - - - - - -
08/08:30pm 34.1 WNW 7 12 1005.0 - 0.0 - - - - - - -
08/08:00pm 34.2 N 12 16 1004.4 - 0.0 - - - - - - -
08/07:30pm 34.1 N 13 17 1004.1 - 0.0 - - - - - - -
08/07:00pm 34.7 N 12 17 1003.9 - 0.0 - - - - - - -
08/06:30pm 35.2 N 14 20 1003.5 - 0.0 - - - - - - -
08/06:00pm 35.6 N 15 20 1003.1 - 0.0 - - - - - - -
08/05:30pm 36.4 N 16 21 1002.7 - 0.0 - - - - - - -
08/05:00pm 37.8 N 15 19 1002.5 - 0.0 - - - - - - -
08/04:30pm 38.9 NNE 15 19 1001.9 - 0.0 - - - - - - -
08/04:00pm 39.4 NNE 15 21 1001.9 - 0.0 - - - - - - -
08/03:30pm 39.6 NNE 17 22 1001.7 - 0.0 - - - - - - -
08/03:00pm 40.7 N 14 21 1001.7 - 0.0 - - - - - - -
08/02:30pm 41.3 N 9 13 1002.0 - 0.0 - - - - - - -
08/02:00pm 41.1 NW 10 18 1002.3 - 0.0 - - - - - - -
08/01:30pm 40.8 N 5 10 1002.6 - 0.0 - - - - - - -
08/01:00pm 41.4 NNW 8 14 1002.9 - 0.0 - - - - - - -
08/12:30pm 41.5 NNW 8 11 1003.4 - 0.0 - - - - - - -
08/12:00pm 41.0 NE 7 15 1003.8 - 0.0 - - - - - - -
08/11:30am 40.5 NNE 8 12 1004.2 - 0.0 - - - - - - -
08/11:00am 40.1 WNW 7 11 1004.6 - 0.0 - - - - - - -
08/10:30am 39.5 NW 5 9 1005.1 - 0.0 - - - - - - -
08/10:00am 39.4 N 6 9 1005.6 - 0.0 - - - - - - -
08/09:30am 38.4 SW 5 7 1005.9 - 0.0 - - - - - - -
08/09:00am 37.3 W 4 6 1006.2 - 0.0 - - - - - - -
08/08:30am 36.1 NW 4 6 1006.3 - 0.0 - - - - - - -
08/08:00am 35.2 WSW 5 7 1006.5 - 0.0 - - - - - - -
08/07:30am 34.5 W 6 8 1006.5 - 0.0 - - - - - - -
08/07:00am 33.5 W 6 8 1006.5 - 0.0 - - - - - - -
08/06:30am 32.8 WNW 4 6 1006.3 - 0.0 - - - - - - -
08/06:00am 31.7 WNW 3 5 1006.1 - 0.0 - - - - - - -
08/05:30am 30.0 CALM 0 0 1006.0 - 0.0 - - - - - - -
08/05:00am 28.6 CALM 0 0 1005.7 - 0.0 - - - - - - -
08/04:30am 28.5 ENE 3 4 1005.4 - 0.0 - - - - - - -
08/04:00am 29.1 E 4 5 1005.1 - 0.0 - - - - - - -
08/03:30am 28.8 ESE 4 5 1004.9 - 0.0 - - - - - - -
08/03:00am 29.9 E 2 4 1004.6 - 0.0 - - - - - - -
08/02:30am 30.9 N 5 6 1004.5 - 0.0 - - - - - - -
08/02:00am 31.2 N 5 6 1004.5 - 0.0 - - - - - - -
08/01:30am 30.9 N 6 6 1004.6 - 0.0 - - - - - - -
08/01:00am 31.4 NW 6 6 1004.7 - 0.0 - - - - - - -
08/12:30am 32.1 WNW 5 7 1005.0 - 0.0 - - - - - - -
08/12:00am 31.3 NW 5 6 1005.0 - 0.0 - - - - - - -
 
Date/Time
WST
Temp
°C
Wind Pressure Rain since
9am
mm
Weather Cloud Vis
km
Sea
Height
m
Swell
Dir  Spd
kts
Gust
kts
hPa Trend Height
m
Period
s
Dir
07/11:30pm 31.6 NNW 5 6 1005.2 - 0.0 - - - - - - -
07/11:00pm 33.5 WNW 5 7 1005.5 - 0.0 - - - - - - -
07/10:30pm 33.7 W 5 7 1005.9 - 0.0 - - - - - - -
07/10:00pm 33.6 NW 4 5 1006.3 - 0.0 - - - - - - -
07/09:30pm 34.4 NNW 1 4 1006.3 - 0.0 - - - - - - -
07/09:00pm 34.8 NNW 3 6 1006.1 - 0.0 - - - - - - -
07/08:30pm 34.7 NNW 8 12 1005.8 - 0.0 - - - - - - -
07/08:00pm 34.8 N 10 14 1005.8 - 0.0 - - - - - - -
07/07:30pm 35.5 N 12 15 1005.5 - 0.0 - - - - - - -
07/07:00pm 35.8 N 12 17 1005.0 - 0.0 - - - - - - -
07/06:30pm 36.1 N 13 19 1004.3 - 0.0 - - - - - - -
07/06:00pm 36.7 N 13 20 1003.7 - 0.0 - - - - - - -
07/05:30pm 38.3 N 13 17 1003.5 - 0.0 - - - - - - -
07/05:00pm 39.8 NNE 5 8 1003.4 - 0.0 - - - - - - -
07/04:30pm 40.4 E 4 8 1003.2 - 0.0 - - - - - - -
07/04:00pm 41.0 NW 4 7 1003.0 - 0.0 - - - - - - -
07/03:30pm 40.7 N 5 10 1003.1 - 0.0 - - - - - - -
07/03:00pm 40.7 NNW 8 11 1003.5 - 0.0 - - - - - - -
07/02:30pm 41.0 NNW 12 16 1003.6 - 0.0 - - - - - - -
07/02:00pm 40.9 S 5 8 1003.8 - 0.0 - - - - - - -
07/01:30pm 40.5 N 7 14 1004.2 - 0.0 - - - - - - -
07/01:00pm 40.3 WNW 4 9 1004.7 - 0.0 - - - - - - -

Other Formats:

Comma delimited format used in spreadsheet applications
http://www.bom.gov.au/fwo/IDW60701/IDW60701.95214.axf

JavaScript Object Notation format (JSON) in row-major order
http://www.bom.gov.au/fwo/IDW60701/IDW60701.95214.json